Time;durP1;ratioP1;P1;durP2;ratioP2;P2;SDS_P1;SDS_P2;PMS_P1;PMS_P2;Temp;Humidity;BMP_temperature;BMP_pressure;BME280_temperature;BME280_humidity;BME280_pressure;Samples;Min_cycle;Max_cycle;Signal;HPM_P1;HPM_P2
2022/04/14 00:01:57;;;;;;;26.80;14.23;;;;;;;7.86;62.80;98533.25;4471492;32;20107;-80
2022/04/14 00:04:24;;;;;;;25.95;12.82;;;;;;;7.55;64.10;98530.56;4471344;32;20097;-80
2022/04/14 00:06:51;;;;;;;27.33;14.68;;;;;;;7.45;63.74;98523.97;4471033;32;20171;-80
2022/04/14 00:09:18;;;;;;;24.77;12.85;;;;;;;6.92;66.42;98521.66;4471420;32;20420;-81
2022/04/14 00:11:45;;;;;;;31.58;15.02;;;;;;;6.99;66.77;98524.09;4471251;32;20088;-81
2022/04/14 00:14:12;;;;;;;29.90;15.10;;;;;;;7.13;66.86;98522.09;4470992;32;20177;-80
2022/04/14 00:16:39;;;;;;;24.20;12.10;;;;;;;7.03;67.59;98524.00;4471280;32;20106;-80
2022/04/14 00:19:07;;;;;;;22.10;11.60;;;;;;;7.40;66.28;98515.50;4456781;32;20088;-80
2022/04/14 00:21:35;;;;;;;23.85;11.70;;;;;;;7.20;65.89;98515.94;4457396;32;20077;-80
2022/04/14 00:24:02;;;;;;;21.27;9.75;;;;;;;6.95;66.83;98515.63;4471234;32;20109;-80
2022/04/14 00:26:29;;;;;;;21.55;10.90;;;;;;;7.09;66.43;98512.75;4470180;32;20740;-80
2022/04/14 00:28:56;;;;;;;20.88;10.68;;;;;;;7.07;66.45;98514.53;4471063;32;20472;-80
2022/04/14 00:31:23;;;;;;;19.52;9.55;;;;;;;6.89;67.14;98513.16;4471169;32;20127;-80
2022/04/14 00:33:50;;;;;;;21.45;9.68;;;;;;;7.23;65.79;98516.75;4470830;32;20097;-80
2022/04/14 00:36:17;;;;;;;20.60;9.68;;;;;;;6.99;66.69;98517.25;4470933;32;20420;-80
2022/04/14 00:38:44;;;;;;;21.67;10.65;;;;;;;7.08;66.43;98517.03;4456927;32;20093;-81
2022/04/14 00:41:11;;;;;;;21.92;11.05;;;;;;;7.09;66.45;98521.31;4470502;32;20148;-81
2022/04/14 00:43:39;;;;;;;23.95;12.68;;;;;;;6.99;66.82;98512.09;4470849;32;20161;-81
2022/04/14 00:46:06;;;;;;;24.85;11.80;;;;;;;7.40;65.40;98516.34;4470814;32;20132;-81
2022/04/14 00:48:33;;;;;;;23.05;11.98;;;;;;;7.59;64.97;98509.06;4470490;32;20163;-81
2022/04/14 00:51:01;;;;;;;23.65;11.82;;;;;;;7.47;65.63;98509.34;4470812;32;20137;-80
2022/04/14 00:53:28;;;;;;;23.87;11.73;;;;;;;7.39;65.71;98506.13;4470796;32;20111;-80
2022/04/14 00:55:55;;;;;;;26.27;11.88;;;;;;;7.66;64.45;98497.78;4470197;32;20100;-80
2022/04/14 00:58:22;;;;;;;21.98;10.90;;;;;;;7.35;65.92;98501.94;4470614;32;20093;-80
2022/04/14 01:00:49;;;;;;;21.50;10.98;;;;;;;7.74;64.46;98511.25;4456735;32;20537;-81
2022/04/14 01:03:17;;;;;;;22.40;10.90;;;;;;;7.61;64.62;98504.75;4470346;32;20085;-80
2022/04/14 01:05:45;;;;;;;18.98;10.00;;;;;;;7.49;64.42;98508.44;4443709;32;20113;-80
2022/04/14 01:08:17;;;;;;;20.95;9.80;;;;;;;7.28;64.27;98508.09;4470109;32;20116;-80
2022/04/14 01:10:48;;;;;;;21.87;10.07;;;;;;;6.77;65.75;98505.72;4470723;32;20133;-80
2022/04/14 01:13:16;;;;;;;20.83;10.32;;;;;;;6.58;66.41;98505.25;4470247;32;20120;-80
2022/04/14 01:15:45;;;;;;;19.45;9.77;;;;;;;6.40;67.88;98506.47;4469981;32;20135;-80
2022/04/14 01:18:12;;;;;;;21.45;10.18;;;;;;;7.07;65.57;98501.69;4470268;32;20153;-80
2022/04/14 01:20:41;;;;;;;20.85;10.15;;;;;;;6.85;66.15;98502.13;4470427;32;20133;-80
2022/04/14 01:23:10;;;;;;;19.02;8.93;;;;;;;6.70;66.91;98502.47;4469942;32;20153;-80
2022/04/14 01:25:38;;;;;;;16.35;8.27;;;;;;;6.77;66.00;98501.44;4470271;32;20118;-81
2022/04/14 01:28:06;;;;;;;16.50;7.45;;;;;;;6.98;65.17;98500.16;4456342;32;20084;-81
2022/04/14 01:30:34;;;;;;;17.67;8.23;;;;;;;6.67;66.13;98503.34;4469984;32;20081;-81
2022/04/14 01:33:01;;;;;;;19.10;8.55;;;;;;;6.47;67.22;98494.34;4470231;32;20448;-81
2022/04/14 01:35:29;;;;;;;17.23;7.87;;;;;;;6.53;66.77;98494.25;4456078;32;20105;-81
2022/04/14 01:37:56;;;;;;;19.85;8.57;;;;;;;6.58;66.21;98490.69;4469734;32;20107;-80
2022/04/14 01:40:23;;;;;;;24.37;11.20;;;;;;;6.12;68.47;98497.56;4472530;32;20103;-80
2022/04/14 01:42:50;;;;;;;22.02;10.93;;;;;;;6.33;68.17;98500.59;4472463;32;20482;-81
2022/04/14 01:45:17;;;;;;;19.33;9.63;;;;;;;5.98;70.61;98500.37;4472017;32;20155;-81
2022/04/14 01:47:45;;;;;;;17.90;8.50;;;;;;;5.97;72.00;98499.53;4472488;32;20114;-80
2022/04/14 01:50:14;;;;;;;18.33;9.02;;;;;;;6.23;68.51;98501.63;4472130;32;20103;-80
2022/04/14 01:52:44;;;;;;;18.48;7.97;;;;;;;6.63;66.30;98508.56;4458398;32;20152;-80
2022/04/14 01:55:12;;;;;;;18.25;8.82;;;;;;;6.55;66.12;98503.59;4472355;32;20101;-80
2022/04/14 01:57:39;;;;;;;17.12;8.00;;;;;;;6.64;65.87;98505.97;4471878;32;20153;-80
2022/04/14 02:00:07;;;;;;;16.95;7.62;;;;;;;6.36;66.20;98502.25;4472396;32;20160;-80
2022/04/14 02:02:35;;;;;;;18.42;7.68;;;;;;;6.72;64.91;98510.97;4472310;32;20124;-80
2022/04/14 02:05:03;;;;;;;17.65;8.02;;;;;;;6.60;65.60;98506.09;4471848;32;20515;-80
2022/04/14 02:07:30;;;;;;;17.52;7.93;;;;;;;6.30;66.42;98510.06;4472412;32;20088;-80
2022/04/14 02:09:56;;;;;;;21.45;9.18;;;;;;;6.33;66.50;98507.44;4472326;32;20103;-80
2022/04/14 02:12:24;;;;;;;20.23;9.60;;;;;;;5.99;67.72;98508.03;4471632;32;20137;-80
2022/04/14 02:14:53;;;;;;;17.83;7.75;;;;;;;5.86;68.46;98495.44;4458215;32;20112;-80
2022/04/14 02:17:20;;;;;;;16.73;7.22;;;;;;;6.09;68.25;98503.59;4472207;32;20084;-80
2022/04/14 02:19:47;;;;;;;14.38;7.00;;;;;;;5.80;69.52;98501.50;4457874;32;20103;-80
2022/04/14 02:22:14;;;;;;;15.55;6.70;;;;;;;5.63;70.61;98506.03;4472204;32;20104;-80
2022/04/14 02:24:41;;;;;;;15.38;6.62;;;;;;;6.04;68.94;98492.56;4458216;32;20115;-80
2022/04/14 02:27:09;;;;;;;15.88;7.40;;;;;;;6.01;69.25;98502.88;4471832;32;20506;-80
2022/04/14 02:29:36;;;;;;;17.95;7.25;;;;;;;5.92;69.92;98495.34;4472197;32;20085;-80
2022/04/14 02:32:03;;;;;;;18.17;8.15;;;;;;;5.60;72.12;98503.53;4472251;32;20105;-80
2022/04/14 02:34:30;;;;;;;20.92;8.80;;;;;;;5.91;70.96;98501.34;4457729;32;20105;-80
2022/04/14 02:36:57;;;;;;;17.05;8.05;;;;;;;6.32;69.52;98498.91;4471919;32;20503;-80
2022/04/14 02:39:24;;;;;;;15.98;7.22;;;;;;;6.02;69.57;98494.31;4471863;32;20120;-80
2022/04/14 02:41:51;;;;;;;18.02;7.72;;;;;;;6.33;68.29;98504.88;4472105;32;20104;-80
2022/04/14 02:44:18;;;;;;;14.75;7.65;;;;;;;6.30;67.77;98502.38;4472031;32;20108;-81
2022/04/14 02:46:45;;;;;;;;;;;;;;;6.21;67.95;98494.84;4472051;32;20502;-80
2022/04/14 02:49:12;;;;;;;18.85;8.73;;;;;;;6.05;69.63;98497.66;4471629;32;20036;-81
2022/04/14 02:51:39;;;;;;;19.73;9.20;;;;;;;6.40;68.16;98497.94;4472016;32;20105;-81
2022/04/14 02:54:06;;;;;;;19.85;9.60;;;;;;;6.66;67.14;98496.53;4471659;32;20109;-80
2022/04/14 02:56:33;;;;;;;21.52;9.73;;;;;;;6.22;68.17;98494.81;4471889;32;20164;-80
2022/04/14 02:59:00;;;;;;;24.95;9.93;;;;;;;6.37;68.12;98496.25;4471960;32;20128;-80
2022/04/14 03:01:27;;;;;;;;;;;;;;;6.27;68.26;98494.72;4471922;32;20118;-80
2022/04/14 03:03:54;;;;;;;18.90;9.38;;;;;;;6.38;68.28;98500.53;4472092;32;20048;-80
2022/04/14 03:06:20;;;;;;;;;;;;;;;6.21;68.69;98494.84;4472201;32;20088;-80
2022/04/14 03:08:47;;;;;;;19.23;9.30;;;;;;;6.31;68.25;98489.53;4471522;32;20040;-80
2022/04/14 03:11:14;;;;;;;;;;;;;;;6.45;67.31;98486.69;4471949;32;20427;-80
2022/04/14 03:13:42;;;;;;;18.98;8.90;;;;;;;6.35;67.43;98491.16;4471695;32;20001;-80
2022/04/14 03:16:09;;;;;;;17.05;8.15;;;;;;;6.03;68.10;98491.72;4471467;32;20114;-80
2022/04/14 03:18:36;;;;;;;21.25;10.13;;;;;;;5.94;68.54;98489.31;4471712;32;20085;-80
2022/04/14 03:21:03;;;;;;;16.77;7.15;;;;;;;5.86;70.23;98492.87;4471901;32;20153;-80
2022/04/14 03:23:30;;;;;;;12.95;6.50;;;;;;;6.04;68.30;98487.44;4471530;32;20084;-80
2022/04/14 03:25:57;;;;;;;15.38;6.53;;;;;;;5.98;68.45;98496.09;4471569;32;20473;-80
2022/04/14 03:28:24;;;;;;;16.40;6.93;;;;;;;6.55;66.02;98501.03;4471406;32;20475;-80
2022/04/14 03:30:57;;;;;;;17.73;8.30;;;;;;;6.67;65.32;98499.94;4471893;32;20097;-80
2022/04/14 03:33:24;;;;;;;15.77;7.47;;;;;;;6.81;64.69;98502.25;4471807;32;20111;-80
2022/04/14 03:35:50;;;;;;;;;;;;;;;5.73;68.63;98499.87;4471503;32;20089;-80
2022/04/14 03:38:17;;;;;;;23.30;10.88;;;;;;;5.40;70.91;98498.69;4471685;32;19972;-80
2022/04/14 03:41:02;;;;;;;20.52;9.60;;;;;;;5.52;70.09;98494.25;4471853;32;20089;-81
2022/04/14 03:43:31;;;;;;;23.80;11.23;;;;;;;6.23;67.28;98500.78;4457665;32;20184;-80
2022/04/14 03:45:58;;;;;;;23.17;11.05;;;;;;;6.63;64.75;98506.84;4471554;32;20120;-80
2022/04/14 03:48:25;;;;;;;22.23;9.60;;;;;;;6.38;65.79;98510.78;4471634;32;20084;-80
2022/04/14 03:50:51;;;;;;;16.50;8.63;;;;;;;6.21;65.59;98505.09;4471307;32;20421;-80
2022/04/14 03:53:18;;;;;;;;;;;;;;;6.15;64.91;98505.19;4457973;32;20148;-81
2022/04/14 03:55:48;;;;;;;23.75;10.52;;;;;;;5.90;66.27;98492.81;4457390;32;19968;-81
2022/04/14 03:58:15;;;;;;;20.02;9.38;;;;;;;6.57;63.95;98490.75;4471018;32;20098;-80
2022/04/14 04:00:43;;;;;;;22.02;8.93;;;;;;;6.51;64.37;98501.13;4470686;32;20152;-80
2022/04/14 04:03:13;;;;;;;19.77;9.27;;;;;;;5.55;67.73;98503.59;4471158;32;20096;-80
2022/04/14 04:05:41;;;;;;;19.10;9.02;;;;;;;5.54;67.56;98498.50;4470988;32;20616;-80
2022/04/14 04:08:08;;;;;;;18.92;8.88;;;;;;;5.85;65.79;98488.59;4471509;32;20107;-80
2022/04/14 04:10:35;;;;;;;17.42;8.65;;;;;;;5.53;67.65;98492.56;4471208;32;20100;-80
2022/04/14 04:13:02;;;;;;;19.05;8.52;;;;;;;5.73;67.20;98505.00;4457118;32;20168;-80
2022/04/14 04:15:30;;;;;;;15.57;6.95;;;;;;;5.41;68.35;98510.62;4471226;32;20172;-80
2022/04/14 04:17:57;;;;;;;12.15;6.07;;;;;;;5.74;67.82;98509.25;4470904;32;20080;-80
2022/04/14 04:20:25;;;;;;;13.90;6.30;;;;;;;5.85;67.24;98509.09;4471270;32;20157;-80
2022/04/14 04:22:52;;;;;;;19.92;7.45;;;;;;;5.77;67.68;98504.12;4471265;32;20107;-80
2022/04/14 04:25:19;;;;;;;14.40;6.53;;;;;;;5.84;67.71;98509.97;4470709;32;20526;-80
2022/04/14 04:27:46;;;;;;;13.80;6.30;;;;;;;5.98;66.85;98506.34;4471167;32;20145;-80
2022/04/14 04:30:13;;;;;;;15.93;6.22;;;;;;;5.59;68.22;98510.34;4471236;32;20132;-80
2022/04/14 04:32:40;;;;;;;14.77;6.82;;;;;;;5.32;69.75;98513.34;4456784;32;20111;-81
2022/04/14 04:35:07;;;;;;;13.55;5.87;;;;;;;5.44;69.82;98503.78;4471007;32;20089;-80
2022/04/14 04:37:34;;;;;;;13.13;6.00;;;;;;;5.61;70.93;98515.44;4470887;32;20152;-80
2022/04/14 04:40:02;;;;;;;13.55;6.03;;;;;;;6.01;69.54;98513.13;4470595;32;20107;-80
2022/04/14 04:42:29;;;;;;;13.45;6.18;;;;;;;6.23;68.10;98521.28;4471012;32;20184;-80
2022/04/14 04:44:56;;;;;;;12.57;5.47;;;;;;;6.51;67.61;98521.63;4470830;32;20163;-80
2022/04/14 04:47:22;;;;;;;;;;;;;;;7.19;64.74;98527.09;4470839;32;20080;-81
2022/04/14 04:49:49;;;;;;;15.07;5.45;;;;;;;7.32;64.36;98531.06;4470877;32;19981;-81
2022/04/14 04:52:16;;;;;;;10.48;4.62;;;;;;;7.89;62.35;98538.34;4470866;32;20113;-81
2022/04/14 04:54:43;;;;;;;13.95;5.32;;;;;;;8.15;61.27;98545.37;4456335;32;20423;-81
2022/04/14 04:57:10;;;;;;;16.50;5.35;;;;;;;8.41;59.72;98552.47;4456640;32;20484;-81
2022/04/14 04:59:37;;;;;;;17.00;5.95;;;;;;;8.66;59.14;98558.66;4456410;32;20127;-81
2022/04/14 05:02:05;;;;;;;12.70;5.47;;;;;;;8.72;58.79;98555.09;4470689;32;20164;-81
2022/04/14 05:04:32;;;;;;;11.90;5.22;;;;;;;8.88;59.27;98560.63;4470557;32;20104;-81
2022/04/14 05:06:59;;;;;;;12.32;5.32;;;;;;;8.89;58.28;98559.75;4470255;32;20099;-81
2022/04/14 05:09:26;;;;;;;12.45;5.47;;;;;;;9.25;57.96;98568.16;4470600;32;20501;-81
2022/04/14 05:11:53;;;;;;;12.20;4.97;;;;;;;10.09;55.45;98563.81;4470627;32;20111;-81
2022/04/14 05:14:20;;;;;;;13.52;4.78;;;;;;;11.52;51.03;98562.25;4471995;32;20429;-81
2022/04/14 05:16:47;;;;;;;11.60;5.10;;;;;;;12.79;47.57;98568.28;4472699;32;20152;-81
2022/04/14 05:19:14;;;;;;;12.73;5.87;;;;;;;13.48;44.47;98565.22;4472617;32;20088;-81
2022/04/14 05:21:41;;;;;;;12.75;5.82;;;;;;;14.01;43.30;98557.50;4472304;32;20172;-81
2022/04/14 05:24:08;;;;;;;12.63;5.90;;;;;;;14.44;42.65;98561.44;4472548;32;20514;-81
2022/04/14 05:26:35;;;;;;;15.68;6.00;;;;;;;14.80;42.05;98560.50;4458466;32;20156;-81
2022/04/14 05:29:02;;;;;;;15.88;6.93;;;;;;;15.26;41.19;98569.31;4472189;32;20133;-81
2022/04/14 05:31:29;;;;;;;18.30;6.60;;;;;;;15.64;38.37;98568.19;4472584;32;20129;-81
2022/04/14 05:33:56;;;;;;;16.90;7.28;;;;;;;16.36;37.93;98568.37;4472662;32;20155;-81
2022/04/14 05:36:23;;;;;;;16.77;6.78;;;;;;;17.28;36.69;98561.16;4472138;32;20111;-81
2022/04/14 05:38:50;;;;;;;13.23;6.05;;;;;;;18.28;37.12;98566.09;4472218;32;20097;-81
2022/04/14 05:41:17;;;;;;;11.25;5.00;;;;;;;19.53;34.52;98575.03;4458564;32;20112;-81
2022/04/14 05:43:45;;;;;;;11.60;4.75;;;;;;;18.86;35.61;98575.31;4472125;32;20388;-81
2022/04/14 05:46:12;;;;;;;9.95;4.95;;;;;;;20.38;33.54;98575.84;4472433;32;20097;-81
2022/04/14 05:48:39;;;;;;;13.20;6.93;;;;;;;19.70;35.38;98579.09;4472040;32;20139;-81
2022/04/14 05:51:06;;;;;;;16.77;7.70;;;;;;;20.72;31.40;98576.78;4472428;32;20431;-81
2022/04/14 05:53:33;;;;;;;16.35;8.48;;;;;;;19.99;31.61;98577.84;4472471;32;20152;-82
2022/04/14 05:56:00;;;;;;;19.77;8.60;;;;;;;19.04;33.27;98578.47;4472018;32;20157;-81
2022/04/14 05:58:27;;;;;;;16.70;8.55;;;;;;;18.82;33.22;98575.63;4472330;32;20119;-82
2022/04/14 06:00:54;;;;;;;18.83;8.70;;;;;;;19.60;33.20;98581.53;4472166;32;20168;-81
2022/04/14 06:03:21;;;;;;;15.88;8.68;;;;;;;20.16;31.59;98585.28;4471940;32;20089;-80
2022/04/14 06:05:48;;;;;;;17.73;8.50;;;;;;;19.27;32.68;98571.62;4472205;32;20085;-81
2022/04/14 06:08:15;;;;;;;22.27;9.20;;;;;;;19.89;32.59;98569.81;4471980;32;20145;-81
2022/04/14 06:10:42;;;;;;;18.42;8.65;;;;;;;20.28;32.59;98572.22;4472010;32;20156;-80
2022/04/14 06:13:09;;;;;;;16.17;9.13;;;;;;;20.71;32.25;98575.13;4472185;32;20468;-81
2022/04/14 06:15:36;;;;;;;17.25;10.05;;;;;;;20.39;33.54;98574.88;4472457;32;20487;-80
2022/04/14 06:18:03;;;;;;;15.93;8.40;;;;;;;20.75;33.40;98572.19;4471670;32;20439;-80
2022/04/14 06:20:30;;;;;;;14.23;8.10;;;;;;;20.38;35.48;98565.34;4472224;32;20415;-80
2022/04/14 06:22:58;;;;;;;15.35;8.43;;;;;;;20.87;35.40;98573.03;4472220;32;20099;-79
2022/04/14 06:25:26;;;;;;;15.95;8.40;;;;;;;20.08;37.06;98565.84;4470866;32;20150;-80
2022/04/14 06:27:55;;;;;;;16.30;7.20;;;;;;;19.86;37.49;98569.19;4458055;32;20451;-81
2022/04/14 06:30:22;;;;;;;11.02;4.70;;;;;;;18.94;35.82;98564.34;4475058;32;20092;-80
2022/04/14 06:33:02;;;;;;;15.90;8.45;;;;;;;18.59;31.91;98566.69;4471927;32;20097;-80
2022/04/14 06:35:30;;;;;;;16.55;6.95;;;;;;;18.62;39.11;98562.09;4460159;32;20439;-81
2022/04/14 06:37:57;;;;;;;12.43;5.32;;;;;;;18.72;31.32;98555.34;4476668;32;20556;-80
2022/04/14 06:40:24;;;;;;;18.12;5.37;;;;;;;18.38;31.37;98554.09;4461027;32;20156;-81
2022/04/14 06:43:00;;;;;;;11.90;4.80;;;;;;;18.58;30.68;98552.78;4473632;32;20105;-86
2022/04/14 06:45:29;;;;;;;13.10;5.40;;;;;;;18.17;30.82;98556.34;4477554;32;20057;-84
2022/04/14 06:47:56;;;;;;;11.12;5.00;;;;;;;18.24;30.93;98551.59;4458834;32;20104;-84
2022/04/14 06:50:23;;;;;;;14.90;5.57;;;;;;;17.80;31.12;98555.31;4472213;32;20566;-85
2022/04/14 06:52:53;;;;;;;13.15;4.60;;;;;;;18.23;32.18;98546.47;4470074;32;20088;-85
2022/04/14 06:55:23;;;;;;;12.02;4.93;;;;;;;18.25;30.65;98549.81;4474548;32;20129;-82
2022/04/14 06:57:50;;;;;;;12.88;5.90;;;;;;;17.97;30.35;98542.94;4474228;32;20155;-80
2022/04/14 07:00:18;;;;;;;10.98;4.65;;;;;;;18.39;29.82;98547.94;4472862;32;20156;-78
2022/04/14 07:02:50;;;;;;;10.43;4.53;;;;;;;18.59;29.37;98543.16;4472705;32;20081;-78
2022/04/14 07:05:18;;;;;;;10.10;4.55;;;;;;;18.47;29.93;98552.66;4472695;32;20159;-77
2022/04/14 07:07:45;;;;;;;11.15;5.00;;;;;;;18.13;29.84;98549.69;4471649;32;20145;-78
2022/04/14 07:10:13;;;;;;;15.40;4.68;;;;;;;18.39;29.81;98549.72;4472959;32;20105;-79
2022/04/14 07:12:41;;;;;;;11.38;4.80;;;;;;;18.37;30.19;98554.22;4471754;32;20085;-78
2022/04/14 07:15:09;;;;;;;12.60;5.05;;;;;;;19.01;30.95;98552.50;4471354;32;20077;-77
2022/04/14 07:17:36;;;;;;;16.05;4.62;;;;;;;18.86;28.88;98554.41;4471737;32;20164;-81
2022/04/14 07:20:05;;;;;;;12.90;4.72;;;;;;;18.92;29.06;98553.13;4458153;32;20451;-82
2022/04/14 07:22:47;;;;;;;11.75;4.93;;;;;;;19.49;28.43;98557.88;4472228;32;20104;-82
2022/04/14 07:25:24;;;;;;;11.25;4.93;;;;;;;18.95;28.98;98563.41;4471809;32;20105;-82
2022/04/14 07:27:52;;;;;;;9.45;3.80;;;;;;;18.06;28.80;98555.38;4471485;32;20100;-81
2022/04/14 07:30:20;;;;;;;26.30;5.03;;;;;;;18.27;28.91;98560.97;4471693;32;20112;-82
2022/04/14 07:32:47;;;;;;;10.88;4.20;;;;;;;17.92;30.98;98562.34;4471770;32;20077;-82
2022/04/14 07:35:14;;;;;;;14.70;4.78;;;;;;;17.98;29.86;98563.75;4471112;32;20209;-82
2022/04/14 07:37:43;;;;;;;10.18;4.30;;;;;;;18.33;29.01;98566.66;4471710;32;20189;-81
2022/04/14 07:40:10;;;;;;;9.80;3.95;;;;;;;19.06;28.81;98569.56;4471957;32;20069;-83
2022/04/14 07:42:39;;;;;;;10.32;3.90;;;;;;;18.86;29.38;98574.47;4471595;32;20417;-81
2022/04/14 07:45:08;;;;;;;12.00;4.40;;;;;;;18.58;27.79;98563.22;4472689;32;20098;-83
2022/04/14 07:47:41;;;;;;;9.15;3.80;;;;;;;18.83;28.07;98575.53;4476255;32;20108;-83
2022/04/14 07:50:19;;;;;;;10.95;4.12;;;;;;;18.85;27.76;98571.03;4481889;32;20162;-82
2022/04/14 07:52:47;;;;;;;8.68;3.75;;;;;;;18.84;27.06;98568.53;4462851;32;20120;-80
2022/04/14 07:55:19;;;;;;;11.12;3.92;;;;;;;18.79;27.16;98579.28;4478738;32;20066;-80
2022/04/14 07:57:46;;;;;;;18.33;4.20;;;;;;;19.06;27.38;98577.41;4484520;32;20106;-82
2022/04/14 08:00:13;;;;;;;11.20;3.90;;;;;;;19.28;28.00;98566.28;4551743;26;213532;-81
2022/04/14 08:02:47;;;;;;;10.50;4.70;;;;;;;18.95;26.14;98573.88;4510818;31;20136;-80
2022/04/14 08:05:17;;;;;;;9.60;3.85;;;;;;;18.81;24.72;98566.94;4500253;31;20104;-80
2022/04/14 08:07:44;;;;;;;9.02;3.72;;;;;;;18.29;26.26;98567.81;4500578;31;20079;-79
2022/04/14 08:10:11;;;;;;;9.35;4.00;;;;;;;18.98;23.71;98578.88;4500273;31;20077;-80
2022/04/14 08:12:38;;;;;;;9.10;3.53;;;;;;;18.77;25.86;98591.63;4501976;31;20100;-80
2022/04/14 08:15:14;;;;;;;10.65;3.90;;;;;;;19.15;24.58;98575.09;4501138;32;20093;-80
2022/04/14 08:17:41;;;;;;;11.05;4.50;;;;;;;18.85;24.80;98578.03;4496437;32;20117;-80
2022/04/14 08:20:10;;;;;;;9.60;3.67;;;;;;;19.13;24.62;98577.81;4488382;31;20143;-80
2022/04/14 08:22:48;;;;;;;9.43;3.97;;;;;;;18.60;24.61;98573.56;4484654;31;20096;-80
2022/04/14 08:25:19;;;;;;;8.50;3.95;;;;;;;19.42;23.15;98581.00;4485878;31;20120;-80
2022/04/14 08:27:49;;;;;;;8.38;3.20;;;;;;;19.53;24.49;98575.03;4485857;31;20118;-81
2022/04/14 08:30:18;;;;;;;10.63;3.75;;;;;;;19.53;24.65;98575.03;4485605;31;20092;-79
2022/04/14 08:32:46;;;;;;;11.23;3.67;;;;;;;19.33;23.13;98582.50;4484610;32;20148;-80
2022/04/14 08:35:14;;;;;;;9.55;3.58;;;;;;;19.01;26.38;98582.09;4490493;31;20112;-81
2022/04/14 08:37:42;;;;;;;10.02;3.45;;;;;;;18.67;23.88;98574.88;4497555;31;20119;-81
2022/04/14 08:40:14;;;;;;;9.57;3.40;;;;;;;18.95;24.68;98579.94;4492035;31;20088;-81
2022/04/14 08:42:43;;;;;;;10.40;3.50;;;;;;;19.76;22.59;98589.13;4491705;31;20097;-81
2022/04/14 08:45:15;;;;;;;10.48;3.15;;;;;;;19.66;23.16;98591.56;4488412;32;20060;-81
2022/04/14 08:47:42;;;;;;;8.82;3.22;;;;;;;20.18;22.40;98588.63;4488855;32;20119;-81
2022/04/14 08:50:15;;;;;;;8.88;3.67;;;;;;;20.03;21.57;98584.53;4491582;32;20061;-82
2022/04/14 08:52:43;;;;;;;14.25;3.80;;;;;;;20.02;22.08;98590.72;4490673;31;20148;-83
2022/04/14 08:55:11;;;;;;;9.27;3.45;;;;;;;19.90;21.65;98584.59;4488125;32;20164;-82
2022/04/14 08:57:41;;;;;;;8.48;3.72;;;;;;;19.70;21.51;98585.16;4488403;31;20068;-81
2022/04/14 09:00:11;;;;;;;8.27;3.33;;;;;;;19.86;22.76;98583.09;4488476;31;20072;-80
2022/04/14 09:02:38;;;;;;;9.02;3.55;;;;;;;19.22;20.35;98577.16;4489637;32;20156;-82
2022/04/14 09:05:06;;;;;;;8.02;3.37;;;;;;;19.59;21.91;98574.63;4487695;31;20080;-82
2022/04/14 09:07:33;;;;;;;8.70;3.40;;;;;;;19.59;21.77;98575.47;4490256;31;20143;-81
2022/04/14 09:10:00;;;;;;;7.28;3.25;;;;;;;19.31;21.04;98573.06;4490142;31;20141;-80
2022/04/14 09:12:28;;;;;;;10.98;3.60;;;;;;;20.03;21.18;98575.81;4489881;32;20101;-81
2022/04/14 09:14:55;;;;;;;9.35;3.78;;;;;;;19.53;21.98;98578.47;4485695;32;20072;-81
2022/04/14 09:17:22;;;;;;;14.32;4.35;;;;;;;20.78;22.60;98574.56;4486566;32;20119;-79
2022/04/14 09:19:49;;;;;;;10.40;4.32;;;;;;;19.84;23.40;98574.53;4488571;31;20103;-81
2022/04/14 09:22:16;;;;;;;11.38;4.35;;;;;;;20.35;23.14;98578.69;4493240;31;20101;-83
2022/04/14 09:24:50;;;;;;;10.18;4.70;;;;;;;20.78;22.39;98576.34;4488921;31;20148;-83
2022/04/14 09:27:28;;;;;;;10.07;4.25;;;;;;;20.20;23.43;98572.78;4488907;32;20557;-82
2022/04/14 09:29:57;;;;;;;10.75;4.45;;;;;;;20.23;24.46;98573.41;4491410;31;20085;-83
2022/04/14 09:32:43;;;;;;;9.90;4.50;;;;;;;20.43;21.90;98571.16;4495774;31;20108;-82
2022/04/14 09:35:18;;;;;;;11.95;4.60;;;;;;;20.39;23.34;98565.25;4495077;32;20126;-83
2022/04/14 09:37:47;;;;;;;10.20;4.80;;;;;;;20.26;22.47;98574.97;4489651;31;20136;-82
2022/04/14 09:40:14;;;;;;;10.82;4.18;;;;;;;19.89;21.88;98574.22;4486144;32;20787;-84
2022/04/14 09:42:43;;;;;;;10.88;4.45;;;;;;;20.23;23.48;98546.38;4487599;31;20084;-84
2022/04/14 09:45:21;;;;;;;13.98;5.20;;;;;;;20.68;22.95;98564.88;4485595;32;20081;-82
2022/04/14 09:48:09;;;;;;;10.02;4.20;;;;;;;20.89;23.02;98567.66;4500618;31;20117;-85
2022/04/14 09:53:15;;;;;;;10.80;4.53;;;;;;;21.02;21.08;98556.09;4951562;26;20133;-84
2022/04/14 09:55:55;;;;;;;9.88;3.97;;;;;;;20.57;21.17;98559.63;4465103;32;20112;-84
2022/04/14 09:58:24;;;;;;;8.43;3.72;;;;;;;20.98;20.40;98565.16;4467362;32;20088;-86
2022/04/14 10:01:01;;;;;;;7.62;3.45;;;;;;;20.43;20.92;98558.88;4570013;26;20057;31
2022/04/14 10:06:09;;;;;;;9.77;3.17;;;;;;;21.08;18.59;98557.41;4636226;26;19993;-85
2022/04/14 10:08:54;;;;;;;11.57;3.53;;;;;;;21.19;19.39;98556.59;4425819;32;20098;-85
2022/04/14 10:11:29;;;;;;;8.32;3.40;;;;;;;21.39;19.22;98555.06;4426022;32;20145;-81
2022/04/14 10:14:10;;;;;;;10.35;3.45;;;;;;;21.75;18.50;98546.03;4424106;32;20134;-82
2022/04/14 10:16:39;;;;;;;9.23;3.70;;;;;;;21.58;18.26;98550.00;4424461;32;20169;-81
2022/04/14 10:19:08;;;;;;;9.52;3.60;;;;;;;21.72;19.71;98547.13;4411935;32;20440;-83
2022/04/14 10:21:37;;;;;;;7.90;3.08;;;;;;;21.34;19.53;98550.16;4424986;32;20433;-82
2022/04/14 10:24:05;;;;;;;10.10;3.97;;;;;;;21.30;18.76;98549.56;4410601;32;20172;-83
2022/04/14 10:26:35;;;;;;;10.57;4.45;;;;;;;21.10;19.27;98547.63;4424670;32;20089;-82
2022/04/14 10:29:06;;;;;;;9.70;4.05;;;;;;;21.51;20.01;98541.78;4435362;32;20081;-82
2022/04/14 10:31:36;;;;;;;9.35;3.90;;;;;;;21.48;19.58;98543.81;4424816;32;20100;-83
2022/04/14 10:34:11;;;;;;;8.85;3.92;;;;;;;21.35;19.88;98547.41;4436514;32;20059;-82
2022/04/14 10:36:39;;;;;;;9.57;4.15;;;;;;;21.52;18.95;98546.09;4424196;32;20721;-82
2022/04/14 10:39:10;;;;;;;8.90;4.05;;;;;;;21.55;19.50;98534.50;4420335;32;20096;-84
2022/04/14 10:41:41;;;;;;;9.07;4.32;;;;;;;21.48;19.18;98538.56;4421838;32;20078;-84
2022/04/14 10:44:09;;;;;;;16.02;4.68;;;;;;;21.22;18.63;98528.31;4435463;32;20102;-83
2022/04/14 10:46:41;;;;;;;10.45;4.37;;;;;;;21.14;20.17;98535.09;4420825;32;20080;-84
2022/04/14 10:49:16;;;;;;;9.40;3.45;;;;;;;21.54;19.96;98525.78;4434393;32;20724;-83
2022/04/14 10:51:44;;;;;;;10.00;4.20;;;;;;;21.30;19.16;98528.56;4429805;32;20068;-84
2022/04/14 10:54:12;;;;;;;11.32;4.90;;;;;;;21.25;20.07;98519.34;4431923;32;20129;-83
2022/04/14 10:56:42;;;;;;;11.12;4.32;;;;;;;21.72;19.87;98514.78;4429618;32;20061;-84
2022/04/14 10:59:13;;;;;;;10.52;4.15;;;;;;;21.43;20.34;98507.44;4429369;32;20105;-82
2022/04/14 11:01:50;;;;;;;10.90;4.37;;;;;;;21.38;20.07;98504.34;4423898;32;20113;-82
2022/04/14 11:04:28;;;;;;;;;;;;;;;20.78;19.03;98514.25;4427850;32;20072;-83
2022/04/14 11:07:09;;;;;;;10.65;3.62;;;;;;;20.72;20.22;98512.06;4427230;32;19987;-83
2022/04/14 11:09:45;;;;;;;10.68;4.45;;;;;;;21.39;20.44;98516.53;4417483;32;20109;-83
2022/04/14 11:12:19;;;;;;;8.18;3.90;;;;;;;21.91;19.67;98514.94;4433279;32;20818;-82
2022/04/14 11:14:51;;;;;;;9.02;3.92;;;;;;;21.60;20.32;98509.56;4433337;32;20101;-83
2022/04/14 11:17:31;;;;;;;9.85;4.00;;;;;;;21.21;19.34;98508.28;4436378;32;20054;-82
2022/04/14 11:20:14;;;;;;;9.82;3.72;;;;;;;21.21;19.01;98512.69;4431125;32;20461;-82
2022/04/14 11:23:13;;;;;;;8.60;3.60;;;;;;;21.56;18.98;98504.66;4425471;32;20094;-81
2022/04/14 11:25:49;;;;;;;11.57;4.15;;;;;;;21.23;18.73;98516.00;4412744;32;20168;-81
2022/04/14 11:28:24;;;;;;;9.05;4.18;;;;;;;21.97;19.68;98509.19;4424235;32;20115;-81
2022/04/14 11:30:58;;;;;;;9.07;4.00;;;;;;;21.72;19.35;98499.84;4423928;32;20101;-81
2022/04/14 11:33:33;;;;;;;9.07;3.90;;;;;;;21.29;20.14;98505.09;4425981;32;20120;-83
2022/04/14 11:36:10;;;;;;;9.63;3.87;;;;;;;20.96;19.43;98495.41;4426216;32;20157;-83
2022/04/14 11:38:56;;;;;;;9.77;4.12;;;;;;;21.78;19.47;98494.06;4426321;32;20432;-82
2022/04/14 11:41:32;;;;;;;12.25;4.37;;;;;;;21.09;19.77;98496.12;4424198;32;20448;-83
2022/04/14 11:44:26;;;;;;;9.50;3.92;;;;;;;21.62;18.73;98491.03;4423833;32;20156;-82
2022/04/14 11:46:54;;;;;;;9.38;3.80;;;;;;;21.46;19.37;98487.97;4411128;32;20101;-82